createdAt,value
2023-05-01T00:02:06.134Z,12.40
2023-05-01T00:08:08.481Z,12.40
2023-05-01T00:14:10.847Z,12.30
2023-05-01T00:20:14.463Z,12.20
2023-05-01T00:26:16.931Z,12.10
2023-05-01T00:32:22.380Z,12.00
2023-05-01T00:38:25.153Z,12.00
2023-05-01T00:44:27.394Z,11.80
2023-05-01T00:50:30.672Z,11.90
2023-05-01T00:56:33.205Z,11.90
2023-05-01T01:02:36.083Z,11.90
2023-05-01T01:08:49.034Z,11.90
2023-05-01T01:14:55.975Z,12.00
2023-05-01T01:21:01.911Z,12.20
2023-05-01T01:27:22.873Z,12.40
2023-05-01T01:33:51.301Z,12.50
2023-05-01T01:40:01.855Z,12.60
2023-05-01T01:46:07.304Z,12.70
2023-05-01T01:52:13.430Z,12.70
2023-05-01T01:58:17.565Z,12.80
2023-05-01T02:04:21.748Z,12.80
2023-05-01T02:10:25.168Z,12.90
2023-05-01T02:16:28.180Z,12.90
2023-05-01T02:22:32.808Z,12.90
2023-05-01T02:28:36.707Z,12.90
2023-05-01T02:34:39.291Z,12.90
2023-05-01T02:40:45.855Z,13.00
2023-05-01T02:46:50.144Z,13.00
2023-05-01T02:52:52.779Z,12.90
2023-05-01T02:59:09.963Z,12.80
2023-05-01T03:05:12.606Z,12.80
2023-05-01T03:11:16.007Z,12.80
2023-05-01T03:17:18.469Z,12.80
2023-05-01T03:23:21.752Z,12.80
2023-05-01T03:29:24.284Z,12.80
2023-05-01T03:35:26.641Z,12.80
2023-05-01T03:41:29.294Z,12.80
2023-05-01T03:47:53.615Z,12.80
2023-05-01T03:53:59.416Z,12.90
2023-05-01T04:00:07.832Z,13.10
2023-05-01T04:06:18.044Z,13.20
2023-05-01T04:12:21.269Z,13.40
2023-05-01T04:18:23.826Z,13.60
2023-05-01T04:24:26.255Z,13.70
2023-05-01T04:30:31.555Z,14.10
2023-05-01T04:36:34.160Z,14.30
2023-05-01T04:42:36.909Z,14.30
2023-05-01T04:48:39.575Z,14.30
2023-05-01T04:54:41.880Z,14.60
2023-05-01T05:00:44.431Z,14.70
2023-05-01T05:06:54.178Z,15.30
2023-05-01T05:13:15.233Z,16.00
2023-05-01T05:19:17.942Z,16.20
2023-05-01T05:25:20.902Z,17.00
2023-05-01T05:31:24.091Z,17.90
2023-05-01T05:37:26.640Z,17.30
2023-05-01T05:43:29.313Z,18.00
2023-05-01T05:49:32.450Z,18.60
2023-05-01T05:55:35.263Z,22.90
2023-05-01T06:01:40.802Z,25.10
2023-05-01T06:07:44.172Z,26.20
2023-05-01T06:13:47.112Z,27.20
2023-05-01T06:19:49.644Z,29.40
2023-05-01T06:25:52.069Z,29.90
2023-05-01T06:31:55.011Z,30.40
2023-05-01T06:37:57.613Z,31.50
2023-05-01T06:44:00.051Z,31.60
2023-05-01T06:50:05.304Z,30.90
2023-05-01T06:56:09.294Z,31.60
2023-05-01T07:02:11.837Z,31.00
2023-05-01T07:08:14.725Z,30.60
2023-05-01T07:14:17.138Z,32.20
2023-05-01T07:20:19.598Z,29.50
2023-05-01T07:26:22.239Z,30.20
2023-05-01T07:32:24.650Z,29.40
2023-05-01T07:38:27.342Z,31.60
2023-05-01T07:44:29.610Z,29.90
2023-05-01T07:50:32.273Z,31.10
2023-05-01T07:56:34.907Z,30.50
2023-05-01T08:02:37.295Z,30.50
2023-05-01T08:08:39.991Z,29.80
2023-05-01T08:14:42.394Z,29.20
2023-05-01T08:20:45.091Z,31.10
2023-05-01T08:26:47.749Z,29.50
2023-05-01T08:32:50.043Z,30.20
2023-05-01T08:38:52.477Z,31.70
2023-05-01T08:44:59.968Z,30.90
2023-05-01T08:51:04.619Z,31.10
2023-05-01T08:57:10.541Z,30.00
2023-05-01T09:03:17.012Z,28.90
2023-05-01T09:09:19.272Z,29.80
2023-05-01T09:15:21.921Z,32.30
2023-05-01T09:21:26.007Z,26.40
2023-05-01T09:27:28.397Z,27.90
2023-05-01T09:33:31.016Z,27.20
2023-05-01T09:39:33.441Z,23.80
2023-05-01T09:45:36.781Z,27.70
2023-05-01T09:51:39.856Z,29.60
2023-05-01T09:57:43.455Z,30.30
2023-05-01T10:03:46.728Z,28.70
2023-05-01T10:09:48.992Z,29.20
2023-05-01T10:15:51.532Z,30.80
2023-05-01T10:21:53.829Z,31.40
2023-05-01T10:27:57.715Z,29.20
2023-05-01T10:34:03.269Z,28.60
2023-05-01T10:40:39.685Z,28.40
2023-05-01T10:46:42.305Z,26.40
2023-05-01T10:53:12.832Z,28.10
2023-05-01T10:59:15.166Z,23.80
2023-05-01T11:05:23.616Z,25.90
2023-05-01T11:11:31.357Z,27.30
2023-05-01T11:17:43.469Z,24.80
2023-05-01T11:23:47.792Z,24.00
2023-05-01T11:29:50.880Z,23.10
2023-05-01T11:36:00.895Z,22.80
2023-05-01T11:42:12.329Z,25.60
2023-05-01T11:48:18.518Z,26.30
2023-05-01T11:54:20.911Z,27.30
2023-05-01T12:00:34.222Z,28.70
2023-05-01T12:06:44.167Z,30.20
2023-05-01T12:12:46.502Z,26.90
2023-05-01T12:18:49.161Z,27.70
2023-05-01T12:24:53.308Z,26.10
2023-05-01T12:31:04.963Z,28.30
2023-05-01T12:37:07.887Z,25.20
2023-05-01T12:43:10.312Z,23.40
2023-05-01T12:49:22.496Z,26.50
2023-05-01T12:55:25.475Z,29.20
2023-05-01T13:01:29.007Z,28.80
2023-05-01T13:07:31.280Z,29.40
2023-05-01T13:13:35.659Z,28.20
2023-05-01T13:19:39.288Z,27.10
2023-05-01T13:25:42.009Z,25.90
2023-05-01T13:31:45.133Z,23.60
2023-05-01T13:37:47.415Z,22.90
2023-05-01T13:43:49.706Z,22.10
2023-05-01T13:49:52.206Z,22.20
2023-05-01T13:55:54.372Z,22.40
2023-05-01T14:01:56.919Z,22.60
2023-05-01T14:08:00.055Z,22.60
2023-05-01T14:14:04.287Z,22.80
2023-05-01T14:20:07.705Z,22.50
2023-05-01T14:26:12.056Z,22.00
2023-05-01T14:32:16.760Z,21.50
2023-05-01T14:38:20.895Z,21.10
2023-05-01T14:44:27.854Z,21.20
2023-05-01T14:50:31.916Z,21.40
2023-05-01T14:56:37.108Z,21.40
2023-05-01T15:02:39.615Z,21.40
2023-05-01T15:08:42.191Z,21.40
2023-05-01T15:14:44.649Z,21.40
2023-05-01T15:20:47.168Z,21.30
2023-05-01T15:26:49.323Z,21.30
2023-05-01T15:32:52.359Z,21.10
2023-05-01T15:38:55.105Z,20.90
2023-05-01T15:44:58.535Z,20.80
2023-05-01T15:51:01.076Z,20.70
2023-05-01T15:57:03.731Z,20.70
2023-05-01T16:03:07.537Z,20.60
2023-05-01T16:09:11.158Z,20.50
2023-05-01T16:15:15.094Z,20.30
2023-05-01T16:21:19.719Z,20.20
2023-05-01T16:27:23.034Z,20.10
2023-05-01T16:33:25.448Z,19.90
2023-05-01T16:39:27.596Z,19.80
2023-05-01T16:45:31.932Z,19.70
2023-05-01T16:51:34.581Z,19.60
2023-05-01T16:57:36.853Z,19.40
2023-05-01T17:03:39.390Z,19.30
2023-05-01T17:09:41.610Z,19.10
2023-05-01T17:15:44.260Z,18.90
2023-05-01T17:21:46.749Z,18.60
2023-05-01T17:27:48.812Z,18.60
2023-05-01T17:33:51.240Z,18.30
2023-05-01T17:39:53.746Z,18.10
2023-05-01T17:45:56.247Z,18.00
2023-05-01T17:51:58.614Z,17.90
2023-05-01T17:58:00.947Z,17.60
2023-05-01T18:04:03.500Z,17.40
2023-05-01T18:10:06.010Z,17.30
2023-05-01T18:16:08.428Z,17.20
2023-05-01T18:22:10.883Z,17.10
2023-05-01T18:28:13.435Z,17.00
2023-05-01T18:34:15.909Z,16.90
2023-05-01T18:40:18.561Z,16.80
2023-05-01T18:46:21.137Z,16.70
2023-05-01T18:52:23.885Z,16.50
2023-05-01T18:58:25.983Z,16.40
2023-05-01T19:04:28.302Z,16.30
2023-05-01T19:10:30.930Z,16.10
2023-05-01T19:16:33.329Z,16.00
2023-05-01T19:22:35.966Z,15.80
2023-05-01T19:28:38.728Z,15.70
2023-05-01T19:34:41.543Z,15.50
2023-05-01T19:40:45.297Z,15.50
2023-05-01T19:46:47.599Z,15.40
2023-05-01T19:52:50.207Z,15.40
2023-05-01T19:58:55.612Z,15.40
2023-05-01T20:04:58.216Z,15.40
2023-05-01T20:11:03.101Z,15.20
2023-05-01T20:17:07.587Z,15.10
2023-05-01T20:23:14.683Z,15.10
2023-05-01T20:29:17.058Z,15.00
2023-05-01T20:35:19.484Z,14.90
2023-05-01T20:41:22.240Z,14.70
2023-05-01T20:47:24.657Z,14.70
2023-05-01T20:53:27.090Z,14.50
2023-05-01T20:59:29.319Z,14.40
2023-05-01T21:05:31.438Z,14.30
2023-05-01T21:11:33.768Z,14.20
2023-05-01T21:17:36.880Z,14.20
2023-05-01T21:23:46.657Z,14.00
2023-05-01T21:29:59.664Z,13.90
2023-05-01T21:36:02.750Z,13.80
2023-05-01T21:42:06.419Z,13.70
2023-05-01T21:48:11.994Z,13.60
2023-05-01T21:54:16.556Z,13.50
2023-05-01T22:00:21.637Z,13.50
2023-05-01T22:06:24.799Z,13.50
2023-05-01T22:12:27.506Z,13.40
2023-05-01T22:18:29.847Z,13.40
2023-05-01T22:24:32.088Z,13.30
2023-05-01T22:30:35.242Z,13.20
2023-05-01T22:36:37.846Z,13.20
2023-05-01T22:42:40.177Z,13.10
2023-05-01T22:48:42.389Z,13.10
2023-05-01T22:54:44.740Z,13.00
2023-05-01T23:00:47.293Z,12.80
2023-05-01T23:06:49.823Z,12.80
2023-05-01T23:12:52.400Z,12.60
2023-05-01T23:18:56.090Z,12.60
2023-05-01T23:24:58.822Z,12.50
2023-05-01T23:31:02.461Z,12.40
2023-05-01T23:37:05.108Z,12.40
2023-05-01T23:43:07.746Z,12.20
2023-05-01T23:49:10.099Z,12.20
2023-05-01T23:55:12.490Z,12.00
